createdAt,value
2022-09-12T15:02:43.441Z,48.72
2022-09-12T15:04:48.039Z,49.88
2022-09-12T15:13:16.017Z,45.70
2022-09-12T15:15:21.187Z,46.79
2022-09-12T15:17:23.977Z,46.59
2022-09-12T15:19:26.613Z,47.01
2022-09-12T15:21:29.398Z,46.62
2022-09-12T15:23:36.290Z,47.67
2022-09-12T15:25:39.256Z,47.00
2022-09-12T15:27:42.547Z,46.52
2022-09-12T15:29:46.885Z,47.32
2022-09-12T15:31:52.483Z,47.41
2022-09-12T15:33:57.038Z,46.63
2022-09-12T15:35:59.763Z,47.83
2022-09-12T15:38:02.396Z,47.36
2022-09-12T15:40:05.870Z,47.37
2022-09-12T15:42:10.307Z,48.37
2022-09-12T15:44:14.181Z,47.93
2022-09-12T15:46:19.546Z,47.40
2022-09-12T15:48:22.633Z,47.94
2022-09-12T15:50:26.466Z,47.81
2022-09-12T15:52:29.456Z,47.18
2022-09-12T15:54:32.348Z,46.63
2022-09-12T15:56:35.102Z,46.71
2022-09-12T15:58:49.728Z,47.38
2022-09-12T16:01:02.291Z,48.06
2022-09-12T16:03:06.426Z,47.90
2022-09-12T16:05:14.794Z,47.13
2022-09-12T16:07:17.359Z,47.25
2022-09-12T16:09:20.236Z,47.16
2022-09-12T16:11:24.304Z,47.17
2022-09-12T16:13:27.299Z,47.85
2022-09-12T16:15:35.535Z,47.55
2022-09-12T16:17:38.539Z,47.36
2022-09-12T16:19:43.258Z,47.50
2022-09-12T16:21:52.409Z,46.84
2022-09-12T16:24:05.323Z,47.42
2022-09-12T16:26:09.061Z,46.64
2022-09-12T16:28:11.999Z,47.16
2022-09-12T16:30:14.824Z,47.02
2022-09-12T16:32:17.640Z,47.87
2022-09-12T16:34:26.724Z,47.44
2022-09-12T16:36:31.146Z,47.21
2022-09-12T16:38:39.407Z,47.35
2022-09-12T16:40:49.021Z,47.63
2022-09-12T16:42:52.637Z,48.37
2022-09-12T16:44:58.560Z,48.11
2022-09-12T16:47:01.169Z,48.36
2022-09-12T16:49:04.073Z,47.67
2022-09-12T16:51:07.721Z,48.13
2022-09-12T16:53:11.740Z,49.64
2022-09-12T16:55:14.428Z,49.56
2022-09-12T16:57:17.220Z,49.94
2022-09-12T16:59:19.821Z,51.12
2022-09-12T17:01:24.489Z,51.25
2022-09-12T17:03:27.404Z,51.49
2022-09-12T17:05:30.405Z,51.37
2022-09-12T17:07:33.150Z,51.83
2022-09-12T17:09:37.211Z,52.05
2022-09-12T17:11:40.437Z,52.27
2022-09-12T17:14:03.900Z,53.03
2022-09-12T17:16:11.024Z,52.92
2022-09-12T17:18:13.771Z,53.70
2022-09-12T17:20:16.702Z,53.78
2022-09-12T17:22:19.516Z,55.25
2022-09-12T17:24:22.993Z,55.55
2022-09-12T17:26:27.293Z,56.85
2022-09-12T17:28:30.477Z,55.15
2022-09-12T17:30:35.747Z,59.66
2022-09-12T17:32:38.573Z,57.24
2022-09-12T17:34:41.243Z,56.44
2022-09-12T17:36:45.216Z,58.70
2022-09-12T17:38:48.227Z,58.46
2022-09-12T17:40:59.531Z,61.97
2022-09-12T17:43:04.624Z,61.91
2022-09-12T17:45:08.537Z,62.91
2022-09-12T17:47:24.097Z,62.84
2022-09-12T17:49:30.341Z,62.73
2022-09-12T17:51:34.141Z,64.19
2022-09-12T17:53:40.932Z,60.91
2022-09-12T17:55:43.983Z,59.87
2022-09-12T17:57:47.335Z,59.69
2022-09-12T17:59:51.487Z,59.99
2022-09-12T18:02:11.711Z,61.05
2022-09-12T18:04:15.324Z,61.25
2022-09-12T18:06:18.970Z,63.27
2022-09-12T18:08:22.576Z,63.46
2022-09-12T18:10:30.244Z,64.80
2022-09-12T18:12:36.899Z,65.89
2022-09-12T18:14:39.944Z,67.63
2022-09-12T18:16:45.152Z,67.32
2022-09-12T18:18:50.909Z,64.57
2022-09-12T18:20:53.560Z,65.44
2022-09-12T18:22:56.243Z,64.58
2022-09-12T18:24:58.904Z,65.78
2022-09-12T18:27:01.814Z,67.63
2022-09-12T18:29:05.406Z,69.47
2022-09-12T18:31:12.396Z,67.43
2022-09-12T18:33:18.817Z,68.50
2022-09-12T18:35:24.544Z,70.68
2022-09-12T18:37:27.454Z,70.07
2022-09-12T18:39:30.052Z,71.49
2022-09-12T18:41:32.788Z,71.82
2022-09-12T18:43:35.608Z,72.69
2022-09-12T18:45:38.291Z,73.26
2022-09-12T18:47:41.882Z,71.59
2022-09-12T18:49:45.825Z,72.61
2022-09-12T18:51:48.411Z,71.99
2022-09-12T18:53:53.191Z,68.00
2022-09-12T18:56:01.398Z,67.31
2022-09-12T18:58:04.016Z,68.05
2022-09-12T19:00:12.259Z,68.17
2022-09-12T19:02:16.728Z,68.68
2022-09-12T19:04:19.418Z,71.08
2022-09-12T19:06:25.273Z,72.39
2022-09-12T19:08:28.316Z,71.53
2022-09-12T19:10:31.382Z,72.26
2022-09-12T19:12:33.970Z,73.81
2022-09-12T19:14:36.566Z,73.97
2022-09-12T19:16:39.184Z,72.95
2022-09-12T19:18:42.964Z,74.97
2022-09-12T19:20:45.553Z,73.63
2022-09-12T19:22:49.818Z,73.78
2022-09-12T19:24:52.431Z,73.49
2022-09-12T19:26:55.018Z,74.53
2022-09-12T19:28:58.074Z,74.93
2022-09-12T19:31:01.763Z,74.86
2022-09-12T19:33:04.675Z,75.03
2022-09-12T19:35:07.754Z,78.08
2022-09-12T19:37:10.494Z,77.81
2022-09-12T19:39:14.769Z,79.95
2022-09-12T19:41:19.003Z,78.11
2022-09-12T19:43:21.819Z,78.78
2022-09-12T19:45:24.895Z,79.48
2022-09-12T19:47:27.846Z,80.51
2022-09-12T19:49:30.774Z,81.20
2022-09-12T19:51:33.701Z,81.26
2022-09-12T19:53:37.317Z,81.24
2022-09-12T19:55:41.542Z,82.75
2022-09-12T19:57:44.293Z,82.01
2022-09-12T19:59:47.948Z,80.77
2022-09-12T20:01:50.804Z,81.44
2022-09-12T20:03:53.824Z,81.16
2022-09-12T20:06:03.085Z,83.23
2022-09-12T20:08:05.756Z,81.89
2022-09-12T20:10:08.976Z,80.42
2022-09-12T20:12:14.361Z,82.70
2022-09-12T20:14:17.020Z,82.10
2022-09-12T20:16:22.819Z,80.79
2022-09-12T20:18:25.707Z,81.36
2022-09-12T20:20:28.342Z,80.11
2022-09-12T20:22:30.946Z,79.29
2022-09-12T20:24:33.670Z,78.70
2022-09-12T20:26:37.084Z,78.82
2022-09-12T20:28:42.128Z,79.23
2022-09-12T20:30:44.746Z,80.19
2022-09-12T20:32:47.333Z,79.99
2022-09-12T20:34:52.932Z,80.28
2022-09-12T20:36:55.575Z,80.36
2022-09-12T20:39:01.200Z,79.74
2022-09-12T20:41:05.226Z,79.76
2022-09-12T20:43:07.816Z,79.53
2022-09-12T20:45:12.241Z,79.86
2022-09-12T20:47:14.881Z,79.88
2022-09-12T20:49:17.697Z,78.94
2022-09-12T20:51:21.512Z,79.12
2022-09-12T20:53:24.237Z,80.22
2022-09-12T20:55:26.837Z,80.92
2022-09-12T20:57:29.490Z,80.27
2022-09-12T20:59:32.375Z,80.80
2022-09-12T21:01:36.443Z,80.37
2022-09-12T21:03:39.631Z,81.04
2022-09-12T21:05:43.355Z,81.70
2022-09-12T21:07:45.959Z,81.05
2022-09-12T21:09:48.867Z,81.43
2022-09-12T21:11:51.464Z,81.71
2022-09-12T21:13:54.998Z,82.44
2022-09-12T21:16:01.162Z,82.33
2022-09-12T21:18:05.622Z,83.51
2022-09-12T21:20:11.363Z,84.41
2022-09-12T21:22:14.259Z,84.28
2022-09-12T21:24:17.046Z,85.24
2022-09-12T21:26:19.837Z,85.26
2022-09-12T21:28:22.550Z,86.38
2022-09-12T21:30:25.268Z,87.44
2022-09-12T21:32:32.460Z,86.60
2022-09-12T21:34:36.593Z,87.07
2022-09-12T21:36:39.292Z,86.24
2022-09-12T21:38:41.886Z,88.12
2022-09-12T21:40:44.643Z,86.92
2022-09-12T21:42:49.424Z,88.73
2022-09-12T21:44:52.131Z,90.54
2022-09-12T21:46:54.792Z,90.87
2022-09-12T21:48:57.597Z,88.85
2022-09-12T21:51:01.791Z,88.25
2022-09-12T21:53:04.384Z,87.82
2022-09-12T21:55:08.918Z,88.86
2022-09-12T21:57:11.498Z,89.02
2022-09-12T21:59:14.055Z,90.03
2022-09-12T22:01:16.718Z,90.08
2022-09-12T22:03:19.290Z,89.98
2022-09-12T22:05:24.545Z,90.93
2022-09-12T22:07:29.303Z,92.39
2022-09-12T22:09:32.770Z,91.64
2022-09-12T22:11:35.412Z,90.25
2022-09-12T22:13:39.706Z,91.92
2022-09-12T22:15:45.357Z,92.06
2022-09-12T22:17:54.313Z,91.63
2022-09-12T22:19:57.125Z,92.05
2022-09-12T22:22:17.473Z,93.87
2022-09-12T22:24:30.443Z,95.49
2022-09-12T22:26:41.898Z,93.52
2022-09-12T22:28:45.083Z,93.30
2022-09-12T22:30:51.354Z,92.34
2022-09-12T22:32:54.011Z,91.75
2022-09-12T22:34:57.803Z,90.44
2022-09-12T22:37:01.186Z,89.99
2022-09-12T22:39:04.170Z,89.51
2022-09-12T22:41:10.101Z,89.36
2022-09-12T22:43:12.974Z,88.73
2022-09-12T22:45:15.588Z,91.31
2022-09-12T22:47:19.955Z,91.65
2022-09-12T22:49:22.646Z,92.20
2022-09-12T22:51:25.618Z,92.58
2022-09-12T22:53:28.589Z,92.51
2022-09-12T22:55:31.417Z,93.09
2022-09-12T22:57:36.122Z,92.76
2022-09-12T22:59:39.928Z,93.96
2022-09-12T23:01:42.519Z,93.47
2022-09-12T23:03:45.555Z,93.93
2022-09-12T23:05:48.733Z,94.86
2022-09-12T23:07:51.973Z,96.57
2022-09-12T23:09:54.572Z,97.20
2022-09-12T23:11:57.300Z,97.31
2022-09-12T23:14:01.709Z,98.05
2022-09-12T23:16:06.780Z,99.38
2022-09-12T23:18:09.412Z,99.85
2022-09-12T23:20:11.997Z,99.52
2022-09-12T23:22:14.674Z,99.17
2022-09-12T23:24:17.761Z,100.00
2022-09-12T23:26:22.714Z,100.00
2022-09-12T23:28:25.326Z,100.00
2022-09-12T23:30:29.257Z,100.00
2022-09-12T23:32:31.886Z,100.00
2022-09-12T23:34:34.594Z,100.00
2022-09-12T23:36:37.278Z,100.00
2022-09-12T23:38:40.027Z,100.00
2022-09-12T23:40:42.673Z,100.00
2022-09-12T23:42:45.256Z,100.00
2022-09-12T23:44:47.860Z,100.00
2022-09-12T23:46:51.846Z,100.00
2022-09-12T23:48:54.608Z,100.00
2022-09-12T23:50:57.273Z,100.00
2022-09-12T23:52:59.842Z,100.00
2022-09-12T23:55:02.611Z,100.00
2022-09-12T23:57:05.503Z,100.00
2022-09-12T23:59:08.149Z,100.00
